Latest Weather Observations for Karijini North

IDW60801

Issued at 10:43 pm WST Monday 29 November 2021 (issued every 10 minutes, with the page automatically refreshed every 10 minutes)

About weather observations | Map of weather stations | Latest weather observations for WA | Other Formats
Station Details ID: 005098 Name: KARIJINI NORTH Lat: -22.30 Lon: 118.45 Height: 474.0 m
Data from the previous 72 hours. | See also: Recent months at Karijini North
Date/Time
WST
Temp
°C
App
Temp
°C
Dew
Point
°C
Rel
Hum
%
Delta-T
°C
Wind Press
QNH
hPa
Press
MSL
hPa
Rain since
9am
mm
Dir  Spd
km/h
Gust
km/h
Spd
kts
Gust
kts
29/10:30pm 31.2 27.5 6.3 21 13.6 NW 15 19 8 10 1012.1 1008.3 0.0
29/10:00pm 30.8 27.4 2.1 16 14.6 WNW 9 13 5 7 1012.1 1008.3 0.0
29/09:30pm 31.7 27.2 -0.1 13 15.7 WNW 13 20 7 11 1012.1 1008.3 0.0
29/09:00pm 30.1 25.9 -3.6 11 15.5 WSW 9 11 5 6 1011.4 1007.6 0.0
29/08:30pm 31.6 28.8 -3.7 10 16.4 WSW 2 11 1 6 1011.1 1007.3 0.0
29/08:00pm 32.0 29.6 -3.4 10 16.6 CALM 0 6 0 3 1010.9 1007.1 0.0
29/07:30pm 34.0 29.7 -4.9 8 18.0 SSE 9 11 5 6 1010.5 1006.7 0.0
29/07:00pm 34.1 31.1 -4.8 8 18.1 NNE 2 7 1 4 1010.1 1006.3 0.0
29/06:30pm 36.5 32.6 -4.8 7 19.5 NNE 7 9 4 5 1009.7 1005.8 0.0
29/06:00pm 38.2 34.2 -8.0 5 21.0 NW 6 7 3 4 1009.3 1005.5 0.0
29/05:30pm 38.6 34.4 -7.7 5 21.2 NE 7 11 4 6 1009.0 1005.2 0.0
29/05:00pm 39.1 33.4 -7.4 5 21.5 SE 15 26 8 14 1009.0 1005.2 0.0
29/04:30pm 39.9 35.4 -6.8 5 21.9 SW 9 15 5 8 1009.0 1005.2 0.0
29/04:00pm 40.4 35.2 -6.5 5 22.2 SW 13 22 7 12 1009.0 1005.2 0.0
29/03:30pm 40.0 34.0 -6.7 5 21.9 SW 17 43 9 23 1009.2 1005.4 0.0
29/03:25pm 40.5 34.9 -6.4 5 22.2 WSW 15 43 8 23 1008.8 1005.0 0.0
29/03:00pm 40.2 35.0 -6.6 5 22.1 SSW 13 20 7 11 1009.6 1005.7 0.0
29/02:30pm 39.5 34.6 -7.1 5 21.7 NNW 11 22 6 12 1009.9 1006.1 0.0
29/02:00pm 39.4 34.5 -7.2 5 21.7 ESE 11 20 6 11 1010.2 1006.4 0.0
29/01:30pm 39.1 33.6 -5.0 6 21.1 E 15 30 8 16 1010.6 1006.8 0.0
29/01:00pm 39.0 34.7 -5.1 6 21.1 N 9 20 5 11 1010.9 1007.1 0.0
29/12:30pm 39.1 33.9 -2.9 7 20.8 NNW 15 26 8 14 1011.5 1007.7 0.0
29/12:00pm 37.6 33.0 -4.0 7 20.0 NNW 11 19 6 10 1012.1 1008.3 0.0
29/11:30am 37.2 32.6 -4.3 7 19.8 E 11 22 6 12 1012.6 1008.8 0.0
29/11:00am 37.3 31.2 -4.2 7 19.9 ENE 19 28 10 15 1013.1 1009.3 0.0
29/10:30am 36.2 30.7 -5.0 7 19.3 NE 15 26 8 14 1013.5 1009.8 0.0
29/10:00am 36.2 30.2 -3.3 8 19.1 NE 19 28 10 15 1013.9 1010.1 0.0
29/09:30am 34.9 28.8 -4.2 8 18.4 ENE 19 28 10 15 1014.2 1010.4 0.0
29/09:00am 34.5 28.7 -4.5 8 18.2 ENE 17 24 9 13 1014.3 1010.5 0.0
29/08:30am 33.5 27.8 -3.7 9 17.5 E 17 24 9 13 1014.4 1010.6 0.0
29/08:00am 33.1 27.0 -4.0 9 17.3 E 19 24 10 13 1014.3 1010.5 0.0
29/07:30am 32.4 27.0 -4.5 9 17.0 E 15 19 8 10 1014.2 1010.4 0.0
29/07:00am 31.8 27.5 -4.9 9 16.7 ESE 9 13 5 7 1014.1 1010.3 0.0
29/06:30am 30.6 26.3 -4.4 10 15.9 ESE 9 13 5 7 1013.9 1010.1 0.0
29/06:00am 29.1 24.9 -4.3 11 15.0 ESE 9 13 5 7 1013.5 1009.8 0.0
29/05:30am 27.3 23.1 -3.5 13 13.9 ESE 9 15 5 8 1013.2 1009.4 0.0
29/05:00am 28.1 22.8 -3.9 12 14.4 ESE 15 19 8 10 1012.8 1009.0 0.0
29/04:30am 28.5 23.4 -4.8 11 14.8 ESE 13 19 7 10 1012.6 1008.8 0.0
29/04:00am 29.2 22.9 -5.5 10 15.3 SE 19 28 10 15 1012.2 1008.4 0.0
29/03:30am 29.2 22.9 -5.5 10 15.3 SE 19 26 10 14 1012.0 1008.2 0.0
29/03:00am 28.2 22.9 -3.9 12 14.5 ESE 15 20 8 11 1012.1 1008.3 0.0
29/02:30am 26.5 22.5 -2.2 15 13.1 ESE 9 9 5 5 1012.1 1008.3 0.0
29/02:00am 26.4 22.5 -1.4 16 12.9 E 9 11 5 6 1012.2 1008.4 0.0
29/01:30am 27.3 23.2 0.1 17 13.1 E 11 13 6 7 1012.2 1008.4 0.0
29/01:00am 26.1 23.7 2.1 21 11.9 ENE 4 17 2 9 1012.3 1008.5 0.0
29/12:30am 27.2 24.7 1.6 19 12.6 E 4 9 2 5 1012.3 1008.5 0.0
29/12:00am 28.7 25.6 1.3 17 13.6 SSW 7 9 4 5 1012.4 1008.6 0.0
 
Date/Time
WST
Temp
°C
App
Temp
°C
Dew
Point
°C
Rel
Hum
%
Delta-T
°C
Wind Press
QNH
hPa
Press
MSL
hPa
Rain since
9am
mm
Dir  Spd
km/h
Gust
km/h
Spd
kts
Gust
kts
28/11:30pm 27.9 24.0 1.4 18 13.1 WNW 11 15 6 8 1012.6 1008.8 0.0
28/11:00pm 28.4 26.2 1.0 17 13.5 NNW 2 6 1 3 1012.4 1008.6 0.0
28/10:30pm 29.9 26.7 0.5 15 14.5 E 7 9 4 5 1012.4 1008.6 0.0
28/10:00pm 30.3 27.2 -0.1 14 14.9 ESE 6 15 3 8 1012.4 1008.6 0.0
28/09:30pm 31.2 27.1 -0.5 13 15.5 ESE 11 11 6 6 1012.4 1008.6 0.0
28/09:00pm 31.9 28.2 0.1 13 15.8 SE 9 13 5 7 1012.2 1008.4 0.0
28/08:30pm 29.8 26.9 1.3 16 14.2 SE 6 11 3 6 1012.1 1008.3 0.0
28/08:00pm 30.3 28.7 2.5 17 14.2 CALM 0 0 0 0 1011.9 1008.1 0.0
28/07:30pm 31.1 29.3 1.4 15 15.0 CALM 0 0 0 0 1011.5 1007.7 0.0
28/07:00pm 33.5 30.4 0.2 12 16.7 E 6 7 3 4 1011.2 1007.4 0.0
28/06:30pm 35.0 31.7 -1.1 10 17.9 NE 6 7 3 4 1010.9 1007.1 0.0
28/06:00pm 36.7 33.8 -1.3 9 19.0 ENE 4 11 2 6 1010.5 1006.7 0.0
28/05:30pm 36.6 32.5 -3.0 8 19.2 NE 9 13 5 7 1010.3 1006.5 0.0
28/05:00pm 37.5 32.4 -2.3 8 19.7 ENE 15 20 8 11 1010.2 1006.4 0.0
28/04:30pm 37.6 32.8 -2.2 8 19.7 ENE 13 24 7 13 1010.2 1006.4 0.0
28/04:00pm 38.1 34.1 -1.9 8 20.0 NNW 9 19 5 10 1010.2 1006.4 0.0
28/03:30pm 37.9 34.5 -0.4 9 19.5 NE 7 15 4 8 1010.5 1006.7 0.0
28/03:00pm 37.9 34.1 -0.4 9 19.6 SW 9 17 5 9 1010.8 1007.0 0.0
28/02:30pm 38.1 33.6 -0.3 9 19.6 ENE 13 24 7 13 1011.1 1007.3 0.0
28/02:00pm 36.9 31.7 0.3 10 18.8 E 17 30 9 16 1011.7 1007.9 0.0
28/01:30pm 37.3 32.6 0.6 10 18.9 ESE 15 30 8 16 1012.1 1008.3 0.0
28/01:00pm 38.0 32.4 -0.3 9 19.6 E 19 35 10 19 1012.4 1008.6 0.0
28/12:30pm 37.5 32.0 0.7 10 19.0 E 19 30 10 16 1013.0 1009.2 0.0
28/12:00pm 36.9 30.8 0.3 10 18.8 ENE 22 33 12 18 1013.4 1009.6 0.0
28/11:30am 35.5 29.2 1.8 12 17.5 E 24 35 13 19 1014.1 1010.3 0.0
28/11:00am 35.1 27.6 1.5 12 17.4 E 30 43 16 23 1014.7 1010.9 0.0
28/10:30am 34.2 27.2 1.9 13 16.7 E 28 43 15 23 1015.1 1011.3 0.0
28/10:23am 34.1 27.1 1.8 13 16.7 E 28 46 15 25 1015.2 1011.4 0.0
28/10:00am 33.2 25.5 2.1 14 16.0 E 32 46 17 25 1015.4 1011.6 0.0
28/09:30am 32.4 24.9 1.5 14 15.7 ESE 30 43 16 23 1015.6 1011.9 0.0
28/09:00am 32.1 23.7 1.3 14 15.6 E 35 48 19 26 1015.7 1012.0 0.0
28/08:47am 31.6 23.2 1.8 15 15.2 E 35 54 19 29 1015.6 1011.9 0.0
28/08:30am 31.4 22.3 1.7 15 15.1 E 39 48 21 26 1015.7 1012.0 0.0
28/08:04am 30.6 21.5 1.9 16 14.5 E 39 57 21 31 1015.7 1012.0 0.0
28/08:00am 30.4 21.3 1.8 16 14.4 E 39 52 21 28 1015.7 1012.0 0.0
28/07:36am 29.9 21.1 1.4 16 14.2 E 37 56 20 30 1015.5 1011.8 0.0
28/07:30am 29.8 21.4 1.3 16 14.2 E 35 50 19 27 1015.6 1011.9 0.0
28/07:00am 29.2 21.8 1.7 17 13.7 E 30 50 16 27 1015.4 1011.6 0.0
28/06:36am 28.5 21.5 1.9 18 13.3 ESE 28 46 15 25 1015.3 1011.5 0.0
28/06:30am 28.4 21.0 1.8 18 13.3 ESE 30 44 16 24 1015.2 1011.4 0.0
28/06:00am 27.9 20.4 1.4 18 13.1 E 30 50 16 27 1014.9 1011.1 0.0
28/05:56am 27.9 20.4 1.4 18 13.1 E 30 50 16 27 1014.8 1011.0 0.0
28/05:30am 27.7 19.8 1.2 18 13.0 ESE 32 44 17 24 1014.5 1010.7 0.0
28/05:00am 27.8 21.3 0.5 17 13.2 ESE 24 37 13 20 1014.0 1010.2 0.0
28/04:30am 27.7 22.7 1.2 18 13.0 ESE 17 26 9 14 1013.5 1009.8 0.0
28/04:00am 25.7 22.3 1.8 21 11.7 E 9 19 5 10 1013.2 1009.4 0.0
28/03:30am 27.3 23.1 1.7 19 12.6 ESE 13 22 7 12 1012.9 1009.1 0.0
28/03:00am 28.1 23.9 1.6 18 13.1 ESE 13 22 7 12 1012.6 1008.8 0.0
28/02:30am 29.1 24.0 0.7 16 14.0 ESE 17 26 9 14 1012.4 1008.6 0.0
28/02:00am 29.9 24.5 1.4 16 14.3 ESE 19 30 10 16 1012.4 1008.6 0.0
28/01:30am 29.9 25.1 0.5 15 14.5 ESE 15 24 8 13 1012.5 1008.7 0.0
28/01:00am 30.4 25.2 -0.1 14 14.9 ESE 17 28 9 15 1012.6 1008.8 0.0
28/12:30am 31.0 25.3 -0.6 13 15.4 ESE 19 28 10 15 1012.7 1008.9 0.0
28/12:00am 31.0 26.1 -0.6 13 15.4 SE 15 20 8 11 1012.8 1009.0 0.0
 
Date/Time
WST
Temp
°C
App
Temp
°C
Dew
Point
°C
Rel
Hum
%
Delta-T
°C
Wind Press
QNH
hPa
Press
MSL
hPa
Rain since
9am
mm
Dir  Spd
km/h
Gust
km/h
Spd
kts
Gust
kts
27/11:30pm 31.5 26.5 -1.3 12 15.8 ESE 15 24 8 13 1013.0 1009.2 0.0
27/11:00pm 31.6 26.2 -1.2 12 15.9 SE 17 28 9 15 1013.2 1009.4 0.0
27/10:30pm 31.9 26.5 -1.0 12 16.0 SE 17 24 9 13 1013.3 1009.5 0.0
27/10:00pm 31.7 27.2 -0.1 13 15.7 SE 13 19 7 10 1013.4 1009.6 0.0
27/09:30pm 32.2 27.3 -0.8 12 16.1 SE 15 20 8 11 1013.2 1009.4 0.0
27/09:00pm 32.2 27.6 -0.8 12 16.1 SE 13 20 7 11 1012.9 1009.1 0.0
27/08:30pm 31.9 27.8 0.1 13 15.8 SE 11 15 6 8 1012.7 1008.9 0.0
27/08:00pm 32.7 28.6 -0.4 12 16.4 SE 11 17 6 9 1012.4 1008.6 0.0
27/07:30pm 32.5 28.5 0.6 13 16.0 SE 11 15 6 8 1012.2 1008.4 0.0
27/07:00pm 33.1 29.4 -0.1 12 16.5 ESE 9 13 5 7 1011.9 1008.1 0.0
27/06:30pm 34.2 29.5 -1.7 10 17.5 E 13 17 7 9 1011.4 1007.6 0.0
27/06:00pm 35.5 31.3 -0.8 10 18.2 ESE 11 20 6 11 1011.0 1007.2 0.0
27/05:30pm 36.0 31.9 -0.4 10 18.4 ESE 11 19 6 10 1010.7 1006.9 0.0
27/05:00pm 36.8 31.4 -1.2 9 19.0 E 17 39 9 21 1010.6 1006.8 0.0
27/04:30pm 36.7 30.9 -1.3 9 19.0 E 19 28 10 15 1010.4 1006.6 0.0
27/04:00pm 37.2 32.6 -0.9 9 19.2 SSE 13 28 7 15 1010.5 1006.7 0.0
27/03:30pm 36.9 31.4 0.3 10 18.8 E 19 32 10 17 1010.7 1006.9 0.0
27/03:00pm 36.2 31.0 -0.2 10 18.5 E 17 28 9 15 1010.8 1007.0 0.0
27/02:30pm 36.0 31.5 -0.4 10 18.4 ENE 13 24 7 13 1011.1 1007.3 0.0
27/02:00pm 36.8 30.7 0.2 10 18.7 ENE 22 35 12 19 1011.7 1007.9 0.0
27/01:30pm 36.6 31.8 0.1 10 18.6 ENE 15 28 8 15 1011.9 1008.1 0.0
27/01:00pm 35.3 30.3 1.6 12 17.5 E 17 30 9 16 1012.3 1008.5 0.0
27/12:30pm 35.3 31.3 2.7 13 17.2 SE 13 24 7 13 1012.7 1008.9 0.0
27/12:00pm 34.4 30.1 3.1 14 16.5 ESE 15 20 8 11 1013.3 1009.5 0.0
27/11:30am 34.6 29.0 3.2 14 16.6 ENE 22 35 12 19 1013.7 1010.0 0.0
27/11:00am 34.3 28.8 4.0 15 16.2 ENE 22 37 12 20 1014.2 1010.4 0.0
27/10:30am 33.3 27.1 4.1 16 15.6 E 26 37 14 20 1014.7 1010.9 0.0
27/10:00am 32.1 25.2 4.8 18 14.6 E 30 44 16 24 1015.0 1011.2 0.0
27/09:30am 32.1 25.0 5.6 19 14.4 E 32 43 17 23 1015.2 1011.4 0.0
27/09:00am 30.6 23.4 5.1 20 13.6 E 32 43 17 23 1015.5 1011.8 0.0
27/08:30am 30.0 22.3 5.3 21 13.2 E 35 48 19 26 1015.5 1011.8 0.0
27/08:00am 29.8 22.4 5.1 21 13.1 E 33 44 18 24 1015.6 1011.9 0.0
27/07:30am 29.4 22.1 5.5 22 12.8 E 33 48 18 26 1015.6 1011.9 0.0
27/07:00am 29.1 24.2 5.2 22 12.7 ESE 20 39 11 21 1015.5 1011.8 0.0
27/06:30am 28.2 23.5 5.1 23 12.2 ESE 19 30 10 16 1015.4 1011.6 0.0
27/06:00am 27.3 22.9 5.0 24 11.7 ESE 17 33 9 18 1015.1 1011.3 0.0
27/05:30am 26.7 21.4 5.1 25 11.3 ESE 22 30 12 16 1014.8 1011.0 0.0
27/05:00am 26.7 21.0 5.1 25 11.3 ESE 24 43 13 23 1014.5 1010.7 0.0
27/04:30am 26.5 21.7 5.5 26 11.0 ESE 20 35 11 19 1014.3 1010.5 0.0
27/04:00am 26.6 22.4 5.5 26 11.1 ESE 17 26 9 14 1014.0 1010.2 0.0
27/03:30am 27.1 22.3 5.4 25 11.4 ESE 20 33 11 18 1013.7 1010.0 0.0
27/03:00am 27.5 21.8 5.1 24 11.8 ESE 24 33 13 18 1013.5 1009.8 0.0
27/02:30am 27.6 22.0 5.2 24 11.8 ESE 24 41 13 22 1013.5 1009.8 0.0
27/02:00am 27.4 23.3 4.5 23 11.9 ESE 15 26 8 14 1013.6 1009.9 0.0
27/01:30am 27.9 23.4 4.2 22 12.3 ESE 17 26 9 14 1013.6 1009.9 0.0
27/01:00am 28.2 23.6 3.8 21 12.6 ESE 17 24 9 13 1013.5 1009.8 0.0
27/12:30am 26.9 23.2 2.1 20 12.3 E 11 24 6 13 1013.7 1010.0 0.0
27/12:00am 29.0 24.1 2.3 18 13.5 SE 17 24 9 13 1013.9 1010.1 0.0
 
Date/Time
WST
Temp
°C
App
Temp
°C
Dew
Point
°C
Rel
Hum
%
Delta-T
°C
Wind Press
QNH
hPa
Press
MSL
hPa
Rain since
9am
mm
Dir  Spd
km/h
Gust
km/h
Spd
kts
Gust
kts
26/11:30pm 28.8 24.3 2.1 18 13.4 SE 15 20 8 11 1014.0 1010.2 0.0
26/11:00pm 29.0 24.4 1.5 17 13.7 SE 15 20 8 11 1014.2 1010.4 0.0

Other formats

Comma delimited format used in spreadsheet applications
http://www.bom.gov.au/fwo/IDW60801/IDW60801.94330.axf

JavaScript Object Notation format (JSON) in row-major order
http://www.bom.gov.au/fwo/IDW60801/IDW60801.94330.json

Data quality

Most of these data are generated automatically and are frequently updated. Quality checks on data are not normally performed. It is possible for incorrect values to appear. Refer to information at About Latest Weather Observations and please check the disclaimer before using these data.